In Rescue
 
Open Full Screen Window  High Contrast Mode
August 12, 2020 3:09 AM EDT
Present Weather: Mist
Weather Information
Wind Direction
  ---
Wind Speed
  00 kt (0 mph)
Wind Gust
  00 kt (0 mph)
Altimeter
30.06 in
Visibility
5 SM
Temperature
20° C
68° F
Dewpoint
20° C
68° F
Humidity
100%
1hr Rain Fall
00.00 in.
24hr Rain Fall
00.00 in.
Sky Condition
Clear
MVFR

METAR KI19 120709Z AUTO 00000KT 5SM BR CLR 20/20 A3006 RMK AO2 T02020197

FAA Disclaimer: The data displayed is for advisory purposes only and is not to be used for flight planning or operations.